createdAt,value
2022-11-10T00:02:05.467Z,70.09
2022-11-10T00:04:33.067Z,70.28
2022-11-10T00:07:00.766Z,69.95
2022-11-10T00:09:28.826Z,70.34
2022-11-10T00:11:56.467Z,69.97
2022-11-10T00:14:41.754Z,70.19
2022-11-10T00:17:10.272Z,70.05
2022-11-10T00:19:38.286Z,70.29
2022-11-10T00:22:05.954Z,70.13
2022-11-10T00:24:33.540Z,70.26
2022-11-10T00:27:01.131Z,70.02
2022-11-10T00:29:29.262Z,70.65
2022-11-10T00:31:57.364Z,70.53
2022-11-10T00:34:25.255Z,70.29
2022-11-10T00:36:53.161Z,71.08
2022-11-10T00:39:20.746Z,71.56
2022-11-10T00:41:49.886Z,71.33
2022-11-10T00:44:17.833Z,71.03
2022-11-10T00:46:45.937Z,71.19
2022-11-10T00:49:13.656Z,71.48
2022-11-10T00:51:41.248Z,71.38
2022-11-10T00:54:09.146Z,71.41
2022-11-10T00:56:37.162Z,71.83
2022-11-10T00:59:05.075Z,71.28
2022-11-10T01:01:32.740Z,71.30
2022-11-10T01:04:00.330Z,71.85
2022-11-10T01:06:27.937Z,71.59
2022-11-10T01:08:55.875Z,72.07
2022-11-10T01:11:23.445Z,72.09
2022-11-10T01:13:51.017Z,71.76
2022-11-10T01:16:19.837Z,71.81
2022-11-10T01:18:47.924Z,72.23
2022-11-10T01:21:16.394Z,71.62
2022-11-10T01:23:43.938Z,71.69
2022-11-10T01:26:11.496Z,72.09
2022-11-10T01:28:39.087Z,72.07
2022-11-10T01:31:06.666Z,71.72
2022-11-10T01:33:34.241Z,72.60
2022-11-10T01:36:01.879Z,72.50
2022-11-10T01:38:29.544Z,72.21
2022-11-10T01:40:57.113Z,71.74
2022-11-10T01:43:27.743Z,71.68
2022-11-10T01:45:55.491Z,71.84
2022-11-10T01:48:23.102Z,72.16
2022-11-10T01:50:50.745Z,71.99
2022-11-10T01:53:18.408Z,72.06
2022-11-10T01:55:46.206Z,72.01
2022-11-10T01:58:14.124Z,72.04
2022-11-10T02:00:41.788Z,72.42
2022-11-10T02:03:09.343Z,72.71
2022-11-10T02:05:37.234Z,72.48
2022-11-10T02:08:06.471Z,71.91
2022-11-10T02:10:34.457Z,72.31
2022-11-10T02:13:05.977Z,71.85
2022-11-10T02:18:37.544Z,72.60
2022-11-10T02:21:05.465Z,72.17
2022-11-10T02:23:33.643Z,72.47
2022-11-10T02:26:01.547Z,72.31
2022-11-10T02:28:29.117Z,73.03
2022-11-10T02:30:56.696Z,73.17
2022-11-10T02:33:24.565Z,72.42
2022-11-10T02:35:52.235Z,72.82
2022-11-10T02:38:19.907Z,72.88
2022-11-10T02:40:47.477Z,73.44
2022-11-10T02:43:15.119Z,73.07
2022-11-10T02:45:45.677Z,73.49
2022-11-10T02:48:13.539Z,73.21
2022-11-10T02:50:41.083Z,73.54
2022-11-10T02:53:08.640Z,73.41
2022-11-10T02:55:37.538Z,73.34
2022-11-10T02:58:05.129Z,73.52
2022-11-10T03:00:32.655Z,73.93
2022-11-10T03:03:01.428Z,73.26
2022-11-10T03:05:28.964Z,73.80
2022-11-10T03:07:56.681Z,73.35
2022-11-10T03:10:24.601Z,74.01
2022-11-10T03:12:52.165Z,73.78
2022-11-10T03:15:19.674Z,74.18
2022-11-10T03:17:47.222Z,74.01
2022-11-10T03:20:15.223Z,74.15
2022-11-10T03:22:43.145Z,73.87
2022-11-10T03:25:10.722Z,74.02
2022-11-10T03:27:38.251Z,73.85
2022-11-10T03:30:05.778Z,73.66
2022-11-10T03:32:33.663Z,73.76
2022-11-10T03:35:01.178Z,73.88
2022-11-10T03:37:28.727Z,73.99
2022-11-10T03:39:56.270Z,73.81
2022-11-10T03:42:23.823Z,73.87
2022-11-10T03:44:52.501Z,74.23
2022-11-10T03:47:20.223Z,74.64
2022-11-10T03:49:47.741Z,74.30
2022-11-10T03:52:15.337Z,74.49
2022-11-10T03:54:43.342Z,74.27
2022-11-10T03:57:12.627Z,74.81
2022-11-10T03:59:40.584Z,74.77
2022-11-10T04:02:08.264Z,74.82
2022-11-10T04:04:53.393Z,74.48
2022-11-10T04:07:38.461Z,74.81
2022-11-10T04:10:06.371Z,74.26
2022-11-10T04:12:51.498Z,74.58
2022-11-10T04:15:36.572Z,74.61
2022-11-10T04:18:17.920Z,74.94
2022-11-10T04:20:46.084Z,74.80
2022-11-10T04:23:29.095Z,74.87
2022-11-10T04:26:14.233Z,74.56
2022-11-10T04:28:41.777Z,74.70
2022-11-10T04:31:10.723Z,75.13
2022-11-10T04:33:38.298Z,74.88
2022-11-10T04:36:06.212Z,74.32
2022-11-10T04:38:33.817Z,74.97
2022-11-10T04:41:01.390Z,74.47
2022-11-10T04:43:30.684Z,75.01
2022-11-10T04:45:58.282Z,74.65
2022-11-10T04:48:25.858Z,74.40
2022-11-10T04:50:53.458Z,74.36
2022-11-10T04:53:21.343Z,74.13
2022-11-10T04:55:49.511Z,74.02
2022-11-10T04:58:17.414Z,74.09
2022-11-10T05:00:45.116Z,74.20
2022-11-10T05:03:12.715Z,74.14
2022-11-10T05:05:40.319Z,73.61
2022-11-10T05:08:08.193Z,73.50
2022-11-10T05:10:35.788Z,73.53
2022-11-10T05:13:03.440Z,73.86
2022-11-10T05:15:31.000Z,73.97
2022-11-10T05:17:58.567Z,73.92
2022-11-10T05:20:29.702Z,74.17
2022-11-10T05:23:14.713Z,74.42
2022-11-10T05:25:42.371Z,74.43
2022-11-10T05:28:09.938Z,74.80
2022-11-10T05:30:37.903Z,75.33
2022-11-10T05:33:05.591Z,74.72
2022-11-10T05:35:33.200Z,75.36
2022-11-10T05:38:00.789Z,75.67
2022-11-10T05:40:28.402Z,75.13
2022-11-10T05:42:57.287Z,75.16
2022-11-10T05:45:24.896Z,75.38
2022-11-10T05:47:52.499Z,75.70
2022-11-10T05:50:20.063Z,75.72
2022-11-10T05:52:50.148Z,75.62
2022-11-10T05:55:19.118Z,75.21
2022-11-10T05:57:46.706Z,75.84
2022-11-10T06:00:14.323Z,76.02
2022-11-10T06:02:42.254Z,75.73
2022-11-10T06:05:09.846Z,76.04
2022-11-10T06:07:37.492Z,75.74
2022-11-10T06:10:05.187Z,75.76
2022-11-10T06:12:32.789Z,75.88
2022-11-10T06:15:00.566Z,75.96
2022-11-10T06:17:28.243Z,76.00
2022-11-10T06:19:56.783Z,76.01
2022-11-10T06:22:24.403Z,76.21
2022-11-10T06:24:52.460Z,75.77
2022-11-10T06:27:20.123Z,75.91
2022-11-10T06:29:47.704Z,75.88
2022-11-10T06:32:17.661Z,75.79
2022-11-10T06:34:45.308Z,75.84
2022-11-10T06:37:12.915Z,76.03
2022-11-10T06:39:40.675Z,76.11
2022-11-10T06:42:08.343Z,75.61
2022-11-10T06:44:37.333Z,76.08
2022-11-10T06:47:05.282Z,76.17
2022-11-10T06:49:32.940Z,76.38
2022-11-10T06:52:00.607Z,76.10
2022-11-10T06:54:28.311Z,75.90
2022-11-10T06:56:56.209Z,76.40
2022-11-10T06:59:23.865Z,76.39
2022-11-10T07:01:51.690Z,76.41
2022-11-10T07:04:20.775Z,76.43
2022-11-10T07:06:48.820Z,76.49
2022-11-10T07:09:17.115Z,76.08
2022-11-10T07:11:44.786Z,76.30
2022-11-10T07:14:12.396Z,76.43
2022-11-10T07:16:40.129Z,76.69
2022-11-10T07:19:07.836Z,76.03
2022-11-10T07:21:35.841Z,75.99
2022-11-10T07:24:03.589Z,76.23
2022-11-10T07:26:31.258Z,75.83
2022-11-10T07:28:59.208Z,76.41
2022-11-10T07:31:27.007Z,76.27
2022-11-10T07:33:56.431Z,76.53
2022-11-10T07:36:24.282Z,75.96
2022-11-10T07:38:51.946Z,76.13
2022-11-10T07:41:19.624Z,75.95
2022-11-10T07:43:47.464Z,75.81
2022-11-10T07:46:16.620Z,75.66
2022-11-10T07:48:44.404Z,76.07
2022-11-10T07:51:12.402Z,76.03
2022-11-10T07:53:41.590Z,75.25
2022-11-10T07:56:09.788Z,75.54
2022-11-10T07:58:38.033Z,75.53
2022-11-10T08:01:05.989Z,75.17
2022-11-10T08:03:33.923Z,75.06
2022-11-10T08:06:01.740Z,75.36
2022-11-10T08:08:30.046Z,75.09
2022-11-10T08:10:58.565Z,75.23
2022-11-10T08:13:26.610Z,74.82
2022-11-10T08:15:54.560Z,74.50
2022-11-10T08:18:22.260Z,74.85
2022-11-10T08:20:50.159Z,74.89
2022-11-10T08:23:20.097Z,74.59
2022-11-10T08:25:48.224Z,74.63
2022-11-10T08:28:15.982Z,74.86
2022-11-10T08:30:43.930Z,74.27
2022-11-10T08:33:11.770Z,74.39
2022-11-10T08:35:39.967Z,73.81
2022-11-10T08:38:09.643Z,73.99
2022-11-10T08:40:37.754Z,74.25
2022-11-10T08:43:07.517Z,74.21
2022-11-10T08:45:36.040Z,74.59
2022-11-10T08:48:04.333Z,74.00
2022-11-10T08:50:32.182Z,74.48
2022-11-10T08:53:00.073Z,74.26
2022-11-10T08:55:27.957Z,73.92
2022-11-10T08:57:56.107Z,74.14
2022-11-10T09:00:26.369Z,74.02
2022-11-10T09:02:54.213Z,74.06
2022-11-10T09:05:22.002Z,73.90
2022-11-10T09:07:50.000Z,73.65
2022-11-10T09:10:17.726Z,73.69
2022-11-10T09:12:46.828Z,73.59
2022-11-10T09:15:14.821Z,73.22
2022-11-10T09:17:42.422Z,73.73
2022-11-10T09:20:10.526Z,73.41
2022-11-10T09:22:38.530Z,73.38
2022-11-10T09:25:06.699Z,72.91
2022-11-10T09:27:34.504Z,72.90
2022-11-10T09:30:02.488Z,73.00
2022-11-10T09:32:32.298Z,72.31
2022-11-10T09:35:00.015Z,72.35
2022-11-10T09:37:28.571Z,72.28
2022-11-10T09:40:01.042Z,72.36
2022-11-10T09:42:29.566Z,71.58
2022-11-10T09:44:57.286Z,70.96
2022-11-10T09:47:50.586Z,71.21
2022-11-10T09:50:12.837Z,70.99
2022-11-10T09:52:40.521Z,71.03
2022-11-10T09:55:08.308Z,70.48
2022-11-10T09:57:36.232Z,69.37
2022-11-10T10:00:04.357Z,68.96
2022-11-10T10:02:36.545Z,67.74
2022-11-10T10:05:04.524Z,67.83
2022-11-10T10:07:32.640Z,67.48
2022-11-10T10:10:00.499Z,68.27
2022-11-10T10:12:28.446Z,68.54
2022-11-10T10:14:59.955Z,68.86
2022-11-10T10:17:27.699Z,68.63
2022-11-10T10:19:55.749Z,68.83
2022-11-10T10:22:23.978Z,68.82
2022-11-10T10:24:53.452Z,68.75
2022-11-10T10:27:22.008Z,69.03
2022-11-10T10:29:50.520Z,68.90
2022-11-10T10:32:18.355Z,69.09
2022-11-10T10:34:46.393Z,68.68
2022-11-10T10:37:14.073Z,67.90
2022-11-10T10:39:41.963Z,67.80
2022-11-10T10:42:09.864Z,66.45
2022-11-10T10:44:37.718Z,65.88
2022-11-10T10:47:05.769Z,66.31
2022-11-10T10:49:34.308Z,65.61
2022-11-10T10:52:04.182Z,65.77
2022-11-10T10:54:31.981Z,65.57
2022-11-10T10:56:59.960Z,65.63
2022-11-10T10:59:27.838Z,65.96
2022-11-10T11:01:55.963Z,65.93
2022-11-10T11:04:25.546Z,65.68
2022-11-10T11:06:53.555Z,65.87
2022-11-10T11:09:21.331Z,66.53
2022-11-10T11:11:49.234Z,66.15
2022-11-10T11:14:17.232Z,66.33
2022-11-10T11:16:45.999Z,66.28
2022-11-10T11:19:13.940Z,66.35
2022-11-10T11:21:41.774Z,66.53
2022-11-10T11:24:09.657Z,66.16
2022-11-10T11:26:37.648Z,66.51
2022-11-10T11:29:06.161Z,66.36
2022-11-10T11:31:37.551Z,66.59
2022-11-10T11:34:08.373Z,65.95
2022-11-10T11:36:36.239Z,64.75
2022-11-10T11:39:04.141Z,65.19
2022-11-10T11:41:33.944Z,65.54
2022-11-10T11:44:01.749Z,65.29
2022-11-10T11:46:29.667Z,64.89
2022-11-10T11:48:57.535Z,64.57
2022-11-10T11:51:25.484Z,64.49
2022-11-10T11:53:53.471Z,64.63
2022-11-10T11:56:21.375Z,64.26
2022-11-10T11:58:49.320Z,63.93
2022-11-10T12:01:17.099Z,63.97
2022-11-10T12:03:47.489Z,63.97
2022-11-10T12:06:15.233Z,64.01
2022-11-10T12:08:43.184Z,64.02
2022-11-10T12:11:11.068Z,64.14
2022-11-10T12:13:39.104Z,63.77
2022-11-10T12:16:06.943Z,64.25
2022-11-10T12:18:38.518Z,64.17
2022-11-10T12:21:06.336Z,63.93
2022-11-10T12:23:34.766Z,64.24
2022-11-10T12:26:02.783Z,64.25
2022-11-10T12:28:30.924Z,64.44
2022-11-10T12:31:01.749Z,64.64
2022-11-10T12:33:30.019Z,64.63
2022-11-10T12:35:58.129Z,64.86
2022-11-10T12:38:26.405Z,64.83
2022-11-10T12:40:54.437Z,64.94
2022-11-10T12:43:22.972Z,64.74
2022-11-10T12:45:50.963Z,64.53
2022-11-10T12:48:19.051Z,64.64
2022-11-10T12:50:46.970Z,64.16
2022-11-10T12:53:14.849Z,64.29
2022-11-10T12:55:44.787Z,63.70
2022-11-10T12:58:12.867Z,62.98
2022-11-10T13:00:40.712Z,63.28
2022-11-10T13:03:08.730Z,62.78
2022-11-10T13:05:36.602Z,62.34
2022-11-10T13:08:06.088Z,62.31
2022-11-10T13:10:33.881Z,62.46
2022-11-10T13:13:01.792Z,61.90
2022-11-10T13:15:29.783Z,61.43
2022-11-10T13:17:57.841Z,61.45
2022-11-10T13:20:31.441Z,61.03
2022-11-10T13:22:59.597Z,60.30
2022-11-10T13:25:27.527Z,59.96
2022-11-10T13:27:55.327Z,59.84
2022-11-10T13:30:23.764Z,60.21
2022-11-10T13:32:51.945Z,59.64
2022-11-10T13:35:19.697Z,59.57
2022-11-10T13:37:53.903Z,60.30
2022-11-10T13:40:21.691Z,60.77
2022-11-10T13:42:49.516Z,60.98
2022-11-10T13:45:18.286Z,60.50
2022-11-10T13:47:46.311Z,60.54
2022-11-10T13:50:14.599Z,60.91
2022-11-10T13:52:42.448Z,60.00
2022-11-10T13:55:15.707Z,60.16
2022-11-10T13:57:45.384Z,59.95
2022-11-10T14:00:13.206Z,59.35
2022-11-10T14:02:41.403Z,59.09
2022-11-10T14:05:09.452Z,58.48
2022-11-10T14:07:37.246Z,58.60
2022-11-10T14:10:07.057Z,58.74
2022-11-10T14:12:35.270Z,58.61
2022-11-10T14:15:03.117Z,58.90
2022-11-10T14:17:30.985Z,58.03
2022-11-10T14:19:59.035Z,57.99
2022-11-10T14:22:28.492Z,57.88
2022-11-10T14:24:56.560Z,57.53
2022-11-10T14:27:24.535Z,57.39
2022-11-10T14:29:52.490Z,56.29
2022-11-10T14:32:20.244Z,56.18
2022-11-10T14:34:49.853Z,56.38
2022-11-10T14:37:17.681Z,56.01
2022-11-10T14:39:45.486Z,55.94
2022-11-10T14:42:13.447Z,56.11
2022-11-10T14:44:41.254Z,56.97
2022-11-10T14:47:12.930Z,58.25
2022-11-10T14:49:40.947Z,59.76
2022-11-10T14:52:08.769Z,60.04
2022-11-10T14:54:36.627Z,60.68
2022-11-10T14:57:04.771Z,61.76
2022-11-10T14:59:33.136Z,62.13
2022-11-10T15:02:01.030Z,61.84
2022-11-10T15:04:29.081Z,62.96
2022-11-10T15:06:57.094Z,62.59
2022-11-10T15:09:24.938Z,63.11
2022-11-10T15:11:53.670Z,63.81
2022-11-10T15:14:21.541Z,63.98
2022-11-10T15:16:49.504Z,64.21
2022-11-10T15:19:17.556Z,64.38
2022-11-10T15:21:45.327Z,64.37
2022-11-10T15:24:14.368Z,64.69
2022-11-10T15:26:42.405Z,64.65
2022-11-10T15:29:10.507Z,65.00
2022-11-10T15:31:38.518Z,65.10
2022-11-10T15:34:06.592Z,65.03
2022-11-10T15:36:35.287Z,65.37
2022-11-10T15:39:03.306Z,65.44
2022-11-10T15:41:31.393Z,66.20
2022-11-10T15:43:59.331Z,65.58
2022-11-10T15:46:27.129Z,65.68
2022-11-10T15:48:57.179Z,65.84
2022-11-10T15:51:26.527Z,66.76
2022-11-10T15:53:54.548Z,66.06
2022-11-10T15:56:22.503Z,66.35
2022-11-10T15:58:50.486Z,66.27
2022-11-10T16:01:18.797Z,66.84
2022-11-10T16:03:46.871Z,66.50
2022-11-10T16:06:14.899Z,67.30
2022-11-10T16:08:42.615Z,66.70
2022-11-10T16:11:10.697Z,66.88
2022-11-10T16:13:42.272Z,67.55
2022-11-10T16:16:10.261Z,67.74
2022-11-10T16:18:43.527Z,67.41
2022-11-10T16:21:11.732Z,67.58
2022-11-10T16:23:39.627Z,67.87
2022-11-10T16:26:08.607Z,67.81
2022-11-10T16:28:36.433Z,68.02
2022-11-10T16:31:04.470Z,67.87
2022-11-10T16:33:32.310Z,67.98
2022-11-10T16:36:01.331Z,68.19
2022-11-10T16:38:29.673Z,68.40
2022-11-10T16:40:57.515Z,68.41
2022-11-10T16:43:25.336Z,68.83
2022-11-10T16:45:53.304Z,68.75
2022-11-10T16:48:22.385Z,68.67
2022-11-10T16:50:50.777Z,68.52
2022-11-10T16:53:18.764Z,68.44
2022-11-10T16:55:47.008Z,68.54
2022-11-10T16:58:14.823Z,68.56
2022-11-10T17:00:44.595Z,68.55
2022-11-10T17:03:12.884Z,68.59
2022-11-10T17:05:40.727Z,68.75
2022-11-10T17:08:08.852Z,69.03
2022-11-10T17:10:36.666Z,68.76
2022-11-10T17:13:05.739Z,69.24
2022-11-10T17:15:35.890Z,68.50
2022-11-10T17:18:04.816Z,68.84
2022-11-10T17:20:32.843Z,69.09
2022-11-10T17:23:00.883Z,69.14
2022-11-10T17:25:30.533Z,69.23
2022-11-10T17:27:58.732Z,69.19
2022-11-10T17:30:26.695Z,69.21
2022-11-10T17:33:04.706Z,69.49
2022-11-10T17:35:39.263Z,69.45
2022-11-10T17:38:08.824Z,69.35
2022-11-10T17:40:36.854Z,69.74
2022-11-10T17:43:04.670Z,69.49
2022-11-10T17:45:32.551Z,69.28
2022-11-10T17:48:01.096Z,69.86
2022-11-10T17:50:29.301Z,70.27
2022-11-10T17:52:57.268Z,69.83
2022-11-10T17:55:29.781Z,69.76
2022-11-10T17:58:01.460Z,69.97
2022-11-10T18:00:30.654Z,70.25
2022-11-10T18:02:58.521Z,70.14
2022-11-10T18:05:26.394Z,70.55
2022-11-10T18:07:54.481Z,70.43
2022-11-10T18:10:22.412Z,70.40
2022-11-10T18:12:50.791Z,70.31
2022-11-10T18:15:18.789Z,70.68
2022-11-10T18:17:46.681Z,70.98
2022-11-10T18:20:14.976Z,70.61
2022-11-10T18:22:45.483Z,70.85
2022-11-10T18:25:13.667Z,71.02
2022-11-10T18:27:41.580Z,70.34
2022-11-10T18:30:09.564Z,71.18
2022-11-10T18:32:37.480Z,71.08
2022-11-10T18:35:06.878Z,70.82
2022-11-10T18:37:38.853Z,71.12
2022-11-10T18:40:07.606Z,70.95
2022-11-10T18:42:36.013Z,71.13
2022-11-10T18:45:04.089Z,71.33
2022-11-10T18:47:31.816Z,70.84
2022-11-10T18:49:59.879Z,71.44
2022-11-10T18:52:27.902Z,71.77
2022-11-10T18:54:55.727Z,71.68
2022-11-10T18:57:23.850Z,72.09
2022-11-10T18:59:52.486Z,71.79
2022-11-10T19:02:21.019Z,71.47
2022-11-10T19:04:53.422Z,71.75
2022-11-10T19:07:21.568Z,71.33
2022-11-10T19:09:49.601Z,71.56
2022-11-10T19:12:21.462Z,71.79
2022-11-10T19:14:54.769Z,71.64
2022-11-10T19:17:22.547Z,71.83
2022-11-10T19:19:56.001Z,72.03
2022-11-10T19:22:27.948Z,71.41
2022-11-10T19:25:11.296Z,72.17
2022-11-10T19:27:39.119Z,71.63
2022-11-10T19:30:06.908Z,72.02
2022-11-10T19:32:36.496Z,71.60
2022-11-10T19:35:05.558Z,71.80
2022-11-10T19:37:34.536Z,71.57
2022-11-10T19:40:02.591Z,71.72
2022-11-10T19:42:30.951Z,71.61
2022-11-10T19:44:59.298Z,71.82
2022-11-10T19:47:27.703Z,71.88
2022-11-10T19:49:55.763Z,72.08
2022-11-10T19:52:23.597Z,72.33
2022-11-10T19:54:51.489Z,72.18
2022-11-10T19:57:19.601Z,72.16
2022-11-10T19:59:47.884Z,71.81
2022-11-10T20:02:15.779Z,72.12
2022-11-10T20:04:57.710Z,71.75
2022-11-10T20:07:51.325Z,72.01
2022-11-10T20:10:20.436Z,72.23
2022-11-10T20:12:48.275Z,72.07
2022-11-10T20:15:16.262Z,72.01
2022-11-10T20:17:44.301Z,71.79
2022-11-10T20:20:12.140Z,72.42
2022-11-10T20:22:40.815Z,72.16
2022-11-10T20:25:09.159Z,71.84
2022-11-10T20:27:37.030Z,72.02
2022-11-10T20:30:04.986Z,72.16
2022-11-10T20:32:33.001Z,72.20
2022-11-10T20:35:01.296Z,71.80
2022-11-10T20:37:29.173Z,72.46
2022-11-10T20:39:57.275Z,72.23
2022-11-10T20:42:25.136Z,72.03
2022-11-10T20:44:52.998Z,72.10
2022-11-10T20:47:24.835Z,72.57
2022-11-10T20:49:52.740Z,71.93
2022-11-10T20:52:20.680Z,72.58
2022-11-10T20:54:48.647Z,72.47
2022-11-10T20:57:16.515Z,72.48
2022-11-10T20:59:44.865Z,72.08
2022-11-10T21:02:12.767Z,72.13
2022-11-10T21:04:43.255Z,71.83
2022-11-10T21:07:11.212Z,72.02
2022-11-10T21:09:39.206Z,72.03
2022-11-10T21:12:24.913Z,72.40
2022-11-10T21:14:52.967Z,71.54
2022-11-10T21:17:20.905Z,72.04
2022-11-10T21:19:48.839Z,71.89
2022-11-10T21:22:16.707Z,71.89
2022-11-10T21:24:44.814Z,71.59
2022-11-10T21:27:13.798Z,71.83
2022-11-10T21:29:42.542Z,72.07
2022-11-10T21:32:10.422Z,71.45
2022-11-10T21:34:38.242Z,72.08
2022-11-10T21:37:06.576Z,71.62
2022-11-10T21:39:36.024Z,71.87
2022-11-10T21:42:03.780Z,72.40
2022-11-10T21:44:31.756Z,72.26
2022-11-10T21:46:59.532Z,71.96
2022-11-10T21:49:27.849Z,71.85
2022-11-10T21:51:55.994Z,72.28
2022-11-10T21:54:23.827Z,72.32
2022-11-10T21:56:51.538Z,71.70
2022-11-10T21:59:19.958Z,72.39
2022-11-10T22:01:48.170Z,72.32
2022-11-10T22:04:17.457Z,72.50
2022-11-10T22:07:02.514Z,72.27
2022-11-10T22:09:47.551Z,71.82
2022-11-10T22:12:33.200Z,72.02
2022-11-10T22:15:18.305Z,72.11
2022-11-10T22:18:03.366Z,71.84
2022-11-10T22:20:31.099Z,72.01
2022-11-10T22:22:58.833Z,72.00
2022-11-10T22:25:26.672Z,71.75
2022-11-10T22:27:54.521Z,71.93
2022-11-10T22:30:22.267Z,72.04
2022-11-10T22:32:50.295Z,71.86
2022-11-10T22:35:32.122Z,72.08
2022-11-10T22:37:59.918Z,72.03
2022-11-10T22:40:45.073Z,71.89
2022-11-10T22:43:29.968Z,72.16
2022-11-10T22:45:59.887Z,72.01
2022-11-10T22:48:27.553Z,71.72
2022-11-10T22:50:55.479Z,72.06
2022-11-10T22:53:23.680Z,71.77
2022-11-10T22:55:51.755Z,72.19
2022-11-10T22:58:21.535Z,72.08
2022-11-10T23:00:49.175Z,72.20
2022-11-10T23:03:16.839Z,72.11
2022-11-10T23:05:44.513Z,72.19
2022-11-10T23:08:12.096Z,71.86
2022-11-10T23:10:40.068Z,72.35
2022-11-10T23:13:07.732Z,72.20
2022-11-10T23:15:35.654Z,71.85
2022-11-10T23:18:06.617Z,72.18
2022-11-10T23:20:34.706Z,72.16
2022-11-10T23:23:04.125Z,72.08
2022-11-10T23:25:31.787Z,72.49
2022-11-10T23:27:59.471Z,72.54
2022-11-10T23:30:27.109Z,72.14
2022-11-10T23:32:54.767Z,72.07
2022-11-10T23:35:23.308Z,71.97
2022-11-10T23:37:50.892Z,72.21
2022-11-10T23:40:18.536Z,72.54
2022-11-10T23:42:46.162Z,71.91
2022-11-10T23:45:13.825Z,72.19
2022-11-10T23:47:42.362Z,72.50
2022-11-10T23:50:10.014Z,72.53
2022-11-10T23:52:37.619Z,72.35
2022-11-10T23:55:05.345Z,72.08
2022-11-10T23:57:33.265Z,72.02
